Create Tblcommutelog Verified Points Advance Search
| # | Trip ID | Id Commuter | Trip Date | Trip Num | Current Lat | Current Lng | Delta Distance | Current Time | Activity | Activity Confidence | Current Speed | |
|---|---|---|---|---|---|---|---|---|---|---|---|---|
| 69401 | 250731_782405_16511739_0706 | 782405 | (not set) | (not set) | 39.278085931082 | -76.620703449393 | 41.1008 | 2025-07-31 09:05:46 | in_vehicle | 100 | 3.2723273757901 | |
| 69402 | 250731_782405_16511739_0706 | 782405 | (not set) | (not set) | 39.278085931082 | -76.620703449393 | 41.1008 | 2025-07-31 09:05:46 | in_vehicle | 100 | 3.2723273757901 | |
| 69403 | 250731_775158_16513674_0858 | 775158 | (not set) | (not set) | 38.814655115423 | -77.052289952591 | 0.2843 | 2025-07-31 09:05:47 | on_foot | 100 | 0.46045043675736 | |
| 69404 | 250731_780825_6461772_0844 | 780825 | (not set) | (not set) | 38.869650285964 | -77.053340964814 | 12.1891 | 2025-07-31 09:05:48 | running | 100 | 0.63926614035245 | |
| 69405 | 250731_781475_6438355_0757 | 781475 | (not set) | (not set) | 38.897337472756 | -77.020838787175 | 20.0869 | 2025-07-31 09:05:48 | in_vehicle | 100 | -0.44703925898772 | |
| 69406 | 250731_748111_16508640_0757 | 748111 | (not set) | (not set) | 38.885742570027 | -77.156345791119 | 13.638 | 2025-07-31 09:05:50 | in_vehicle | 100 | 0 | |
| 69407 | 250731_753953_16495306_0848 | 753953 | (not set) | (not set) | 38.870154674547 | -77.125701558085 | 2.5459 | 2025-07-31 09:05:51 | in_vehicle | 100 | 6.2004345221597 | |
| 69408 | 250731_753953_16495306_0848 | 753953 | (not set) | (not set) | 38.870154674547 | -77.125701558085 | 2.5459 | 2025-07-31 09:05:51 | in_vehicle | 100 | 6.2004345221597 | |
| 69409 | 250731_777830_16513402_0837 | 777830 | (not set) | (not set) | 38.881967819186 | -77.112452946353 | 2.4768 | 2025-07-31 09:05:51 | in_vehicle | 100 | -0.44703925898772 | |
| 69410 | 250731_775158_16513674_0858 | 775158 | (not set) | (not set) | 38.814595824181 | -77.052403383911 | 0.2916 | 2025-07-31 09:05:55 | on_foot | 100 | 0.66608849589171 | |
| 69411 | 250731_786980_16500126_0900 | 786980 | (not set) | (not set) | 38.829903158494 | -77.112245361343 | 0.8884 | 2025-07-31 09:05:58 | in_vehicle | 100 | 7.3672069881177 | |
| 69412 | 250731_698742_16447752_0838 | 698742 | (not set) | (not set) | 38.870555020259 | -77.042072239321 | 12.6572 | 2025-07-31 09:05:58 | in_vehicle | 100 | 6.7860559514337 | |
| 69413 | 250731_753668_16500115_0823 | 753668 | (not set) | (not set) | 38.883450051658 | -77.15029829092 | 8.1075 | 2025-07-31 09:05:59 | in_vehicle | 100 | 2.4497751392527 | |
| 69414 | 250731_753668_16500115_0823 | 753668 | (not set) | (not set) | 38.883450051658 | -77.15029829092 | 8.1075 | 2025-07-31 09:05:59 | in_vehicle | 100 | 2.4497751392527 | |
| 69415 | 250731_777830_16513402_0837 | 777830 | (not set) | (not set) | 38.881939452945 | -77.111988877887 | 2.4768 | 2025-07-31 09:05:59 | in_vehicle | 100 | -0.44703925898772 | |
| 69416 | 250731_782405_16511739_0706 | 782405 | (not set) | (not set) | 39.27897235024 | -76.620377646721 | 41.1644 | 2025-07-31 09:06:00 | in_vehicle | 100 | 3.169508346223 | |
| 69417 | 250731_782405_16511739_0706 | 782405 | (not set) | (not set) | 39.27897235024 | -76.620377646721 | 41.1644 | 2025-07-31 09:06:00 | in_vehicle | 100 | 3.169508346223 | |
| 69418 | 250731_772498_16490104_0834 | 772498 | (not set) | (not set) | 38.946713778342 | -76.873375185683 | 8.1039 | 2025-07-31 09:06:03 | unknown | 100 | 4.7520273230395 | |
| 69419 | 250731_772498_16490104_0834 | 772498 | (not set) | (not set) | 38.946713778342 | -76.873375185683 | 8.1039 | 2025-07-31 09:06:03 | unknown | 100 | 4.7520273230395 | |
| 69420 | 250731_780813_16421763_0717 | 780813 | (not set) | (not set) | 38.901874466808 | -77.050008055401 | 20.8858 | 2025-07-31 09:06:07 | on_foot | 100 | 0.46939122193711 |